createdAt,value
2019-04-24T00:01:43.277Z,1.8
2019-04-24T00:06:47.087Z,1.3
2019-04-24T00:11:44.501Z,1.3
2019-04-24T00:16:57.300Z,1.3
2019-04-24T00:21:46.121Z,1.3
2019-04-24T00:51:49.416Z,1
2019-04-24T00:56:52.961Z,1.3
2019-04-24T01:07:07.579Z,0.9
2019-04-24T01:11:31.463Z,0.9
2019-04-24T01:16:46.498Z,0.9
2019-04-24T01:26:48.487Z,0.9
2019-04-24T01:31:46.620Z,0.9
2019-04-24T01:36:38.701Z,1.3
2019-04-24T01:51:39.598Z,2.2
2019-04-24T01:56:42.322Z,2.2
2019-04-24T02:06:42.208Z,3
2019-04-24T02:11:42.718Z,3
2019-04-24T02:26:33.315Z,3.1
2019-04-24T02:31:48.671Z,3.1
2019-04-24T02:36:45.045Z,3.1
2019-04-24T02:46:44.055Z,2.7
2019-04-24T02:56:57.372Z,2.5
2019-04-24T03:07:08.638Z,2.6
2019-04-24T03:12:26.756Z,2.6
2019-04-24T03:17:20.546Z,2.2
2019-04-24T03:32:16.961Z,2.4
2019-04-24T03:37:13.041Z,3.1
2019-04-24T03:46:48.454Z,3.1
2019-04-24T03:56:34.605Z,3.1
2019-04-24T04:02:10.249Z,3.1
2019-04-24T04:07:01.962Z,3.1
2019-04-24T04:12:10.446Z,3.1
2019-04-24T04:31:36.127Z,3
2019-04-24T04:36:59.052Z,2.8
2019-04-24T04:41:54.403Z,2.8
2019-04-24T04:56:51.383Z,3.6
2019-04-24T05:01:59.785Z,3.6
2019-04-24T05:16:56.400Z,2.7
2019-04-24T05:22:00.500Z,2.7
2019-04-24T05:36:50.829Z,2.7
2019-04-24T05:41:46.544Z,2.7
2019-04-24T05:51:47.543Z,3.1
2019-04-24T05:56:54.196Z,3.1
2019-04-24T06:02:10.081Z,3.1
2019-04-24T06:12:00.760Z,2.5
2019-04-24T06:16:54.536Z,2.7
2019-04-24T06:21:48.399Z,2.7
2019-04-24T06:26:43.560Z,3.1
2019-04-24T06:37:03.469Z,3.6
2019-04-24T06:41:43.445Z,3.6
2019-04-24T06:51:53.841Z,3.6
2019-04-24T06:57:18.031Z,3.2
2019-04-24T07:01:38.093Z,3.2
2019-04-24T07:06:42.226Z,2.2
2019-04-24T07:17:15.517Z,2.2
2019-04-24T07:21:37.486Z,2.2
2019-04-24T07:26:47.794Z,2.2
2019-04-24T07:31:47.001Z,2.2
2019-04-24T07:42:13.278Z,1.7
2019-04-24T07:46:51.869Z,2.6
2019-04-24T07:51:46.039Z,2.6
2019-04-24T07:57:01.172Z,3.1
2019-04-24T08:01:56.667Z,3.1
2019-04-24T08:11:51.395Z,2.9
2019-04-24T08:16:47.506Z,2.2
2019-04-24T08:21:46.929Z,2.2
2019-04-24T08:31:38.973Z,2.2
2019-04-24T08:36:35.619Z,2.2
2019-04-24T08:46:46.628Z,2
2019-04-24T08:56:53.661Z,3.1
2019-04-24T09:06:47.341Z,3.1
2019-04-24T09:16:37.353Z,2.7
2019-04-24T09:32:07.569Z,2.2
2019-04-24T09:36:52.447Z,2.2
2019-04-24T09:42:05.154Z,2.2
2019-04-24T09:56:57.209Z,2.7
2019-04-24T10:01:46.734Z,2.7
2019-04-24T10:12:17.140Z,1.8
2019-04-24T10:26:51.214Z,3.6
2019-04-24T10:31:55.928Z,3.6
2019-04-24T10:36:56.036Z,2.9
2019-04-24T10:56:44.322Z,3.1
2019-04-24T11:01:47.204Z,3.1
2019-04-24T11:12:03.779Z,2.2
2019-04-24T11:21:59.869Z,2.8
2019-04-24T11:31:49.993Z,2.4
2019-04-24T11:36:52.628Z,2.7
2019-04-24T11:47:13.591Z,3.1
2019-04-24T11:51:53.814Z,3.1
2019-04-24T11:56:56.688Z,1.9
2019-04-24T12:02:05.880Z,1.9
2019-04-24T12:06:46.740Z,1.8
2019-04-24T12:11:40.222Z,1.8
2019-04-24T12:16:46.954Z,2.2
2019-04-24T12:21:51.461Z,2.2
2019-04-24T12:26:37.471Z,2.2
2019-04-24T12:31:49.283Z,2.2
2019-04-24T12:36:52.202Z,2.7
2019-04-24T12:41:40.229Z,2.7
2019-04-24T12:46:55.803Z,2.2
2019-04-24T12:51:42.805Z,2.2
2019-04-24T12:57:07.300Z,2.7
2019-04-24T13:06:38.456Z,2.7
2019-04-24T13:11:47.874Z,2.7
2019-04-24T13:16:46.771Z,2.7
2019-04-24T13:21:25.351Z,2.7
2019-04-24T13:31:54.272Z,2.7
2019-04-24T13:37:00.890Z,2.9
2019-04-24T13:41:55.932Z,2.9
2019-04-24T13:46:49.355Z,2.7
2019-04-24T13:51:44.514Z,2.7
2019-04-24T13:56:51.668Z,2.9
2019-04-24T14:01:47.268Z,2.9
2019-04-24T14:21:54.592Z,3.1
2019-04-24T14:31:53.236Z,2.5
2019-04-24T14:36:53.307Z,2.7
2019-04-24T14:41:38.288Z,2.7
2019-04-24T14:46:38.336Z,2.8
2019-04-24T14:51:49.489Z,2.8
2019-04-24T14:56:53.352Z,2.7
2019-04-24T15:01:47.947Z,2.7
2019-04-24T15:12:06.769Z,2.6
2019-04-24T15:21:56.919Z,3.1
2019-04-24T15:26:49.423Z,2.7
2019-04-24T15:31:39.326Z,2.7
2019-04-24T15:36:45.149Z,2.7
2019-04-24T15:47:00.198Z,2.6
2019-04-24T15:51:29.609Z,2.6
2019-04-24T15:56:17.656Z,3.6
2019-04-24T16:06:18.006Z,3.1
2019-04-24T16:11:17.511Z,3.1
2019-04-24T16:16:39.801Z,2.8
2019-04-24T16:32:09.141Z,2.2
2019-04-24T16:56:50.027Z,2.2
2019-04-24T17:01:52.105Z,2.2
2019-04-24T17:06:51.235Z,2.5
2019-04-24T17:11:45.603Z,2.5
2019-04-24T17:17:05.584Z,2
2019-04-24T17:26:49.652Z,1.8
2019-04-24T17:31:48.780Z,1.8
2019-04-24T17:36:28.972Z,1.8
2019-04-24T17:41:26.252Z,1.8
2019-04-24T17:46:51.704Z,2.7
2019-04-24T17:51:43.987Z,2.7
2019-04-24T18:01:18.081Z,2.2
2019-04-24T18:06:18.088Z,1.8
2019-04-24T18:11:18.287Z,1.8
2019-04-24T18:16:17.670Z,1.8
2019-04-24T18:21:17.613Z,1.8
2019-04-24T18:26:17.753Z,1.4
2019-04-24T18:31:17.644Z,1.4
2019-04-24T18:36:17.917Z,1.8
2019-04-24T18:41:17.983Z,1.8
2019-04-24T18:46:17.794Z,1.3
2019-04-24T18:51:18.067Z,1.3
2019-04-24T18:56:17.827Z,1.3
2019-04-24T19:01:18.233Z,1.3
2019-04-24T19:06:29.580Z,2
2019-04-24T19:11:18.359Z,2
2019-04-24T19:16:17.924Z,2.2
2019-04-24T19:21:17.929Z,2.2
2019-04-24T19:26:18.034Z,1.3
2019-04-24T19:31:18.722Z,1.3
2019-04-24T19:36:18.214Z,1.5
2019-04-24T19:41:18.658Z,1.5
2019-04-24T19:46:19.853Z,1.8
2019-04-24T19:51:18.522Z,1.8
2019-04-24T19:56:17.858Z,1.8
2019-04-24T20:01:18.301Z,1.8
2019-04-24T20:06:17.976Z,1.8
2019-04-24T20:11:18.516Z,1.8
2019-04-24T20:16:18.710Z,1.5
2019-04-24T20:21:17.694Z,1.5
2019-04-24T20:26:18.463Z,1.8
2019-04-24T20:31:17.986Z,1.8
2019-04-24T20:36:18.600Z,2
2019-04-24T20:41:19.158Z,2
2019-04-24T20:46:17.772Z,1.8
2019-04-24T20:51:18.391Z,1.8
2019-04-24T20:56:18.577Z,1.8
2019-04-24T21:01:19.395Z,1.8
2019-04-24T21:06:19.519Z,1.7
2019-04-24T21:11:18.270Z,1.7
2019-04-24T21:16:19.087Z,2.2
2019-04-24T21:21:17.771Z,2.2
2019-04-24T21:26:18.330Z,1.8
2019-04-24T21:31:17.874Z,1.8
2019-04-24T21:36:18.731Z,1.8
2019-04-24T21:41:17.690Z,1.8
2019-04-24T21:46:17.825Z,1.8
2019-04-24T21:51:17.858Z,1.8
2019-04-24T21:56:17.989Z,1.8
2019-04-24T22:01:18.467Z,1.8
2019-04-24T22:06:18.706Z,1.9
2019-04-24T22:11:17.918Z,1.9
2019-04-24T22:16:18.336Z,2
2019-04-24T22:21:18.696Z,2
2019-04-24T22:26:18.076Z,2.1
2019-04-24T22:31:17.929Z,2.1
2019-04-24T22:36:18.287Z,2.2
2019-04-24T22:41:18.164Z,2.2
2019-04-24T22:46:20.666Z,2.2
2019-04-24T22:51:18.287Z,2.2
2019-04-24T22:56:18.411Z,1.8
2019-04-24T23:01:18.357Z,1.8
2019-04-24T23:06:18.723Z,2.2
2019-04-24T23:11:18.462Z,2.2
2019-04-24T23:16:18.029Z,2.2
2019-04-24T23:21:29.890Z,2.2
2019-04-24T23:26:18.108Z,1.6
2019-04-24T23:31:17.888Z,1.6
2019-04-24T23:36:18.010Z,0.9
2019-04-24T23:41:18.032Z,0.9
2019-04-24T23:46:18.002Z,1.3
2019-04-24T23:51:18.188Z,1.3
2019-04-24T23:56:18.029Z,1.8
